Time;durP1;ratioP1;P1;durP2;ratioP2;P2;SDS_P1;SDS_P2;PMS_P1;PMS_P2;Temp;Humidity;BMP_temperature;BMP_pressure;BME280_temperature;BME280_humidity;BME280_pressure;Samples;Min_cycle;Max_cycle;Signal;HPM_P1;HPM_P2
2021/11/12 00:14:51;;;;;;;21.10;10.23;;;;;;;9.55;96.55;99069.94;5130064;27;20459;-93
2021/11/12 00:17:19;;;;;;;24.30;10.95;;;;;;;9.59;95.95;99068.13;5116083;28;20480;-94
2021/11/12 00:19:46;;;;;;;26.30;11.27;;;;;;;9.63;97.24;99088.41;5118374;28;20089;-93
2021/11/12 00:22:14;;;;;;;28.45;12.02;;;;;;;9.44;97.77;99054.22;5123822;28;20043;-94
2021/11/12 00:24:41;;;;;;;24.40;11.15;;;;;;;9.61;97.43;99077.81;5124472;28;20066;-94
2021/11/12 00:27:08;;;;;;;38.05;13.57;;;;;;;9.54;97.32;99052.28;5121888;28;20088;-95
2021/11/12 00:29:43;;;;;;;32.40;14.85;;;;;;;9.53;97.23;99058.47;5127301;28;20040;-93
2021/11/12 00:32:20;;;;;;;26.33;12.35;;;;;;;9.58;97.16;99058.41;5119930;28;20048;-95
2021/11/12 00:40:49;;;;;;;27.70;12.43;;;;;;;9.62;96.79;99046.81;5167267;27;20383;-94
2021/11/12 00:46:21;;;;;;;28.75;13.35;;;;;;;9.77;96.13;99059.81;5147118;27;20360;-93
2021/11/12 00:51:51;;;;;;;25.25;11.43;;;;;;;9.74;96.04;99048.38;5106112;27;20371;-93
2021/11/12 00:54:18;;;;;;;;;;;;;;;9.88;95.97;99076.41;5059879;28;20041;-94
2021/11/12 00:56:46;;;;;;;25.90;11.68;;;;;;;9.72;96.05;99042.22;5066601;28;19974;-93
2021/11/12 00:59:12;;;;;;;26.10;11.15;;;;;;;9.69;96.10;99035.16;5060511;28;20107;-94
2021/11/12 01:01:40;;;;;;;24.77;10.80;;;;;;;9.81;96.20;99050.00;5073277;28;20044;-93
2021/11/12 01:04:10;;;;;;;19.45;10.20;;;;;;;9.82;95.18;99011.91;5057836;28;20041;-94
2021/11/12 01:06:38;;;;;;;23.52;10.52;;;;;;;9.89;94.96;99021.53;5057223;28;20045;-93
2021/11/12 01:09:10;;;;;;;22.48;10.13;;;;;;;9.86;94.38;99013.59;5061672;28;20045;-93
2021/11/12 01:11:36;;;;;;;23.75;11.23;;;;;;;9.91;94.68;99029.44;5062017;28;20045;-94
2021/11/12 01:14:04;;;;;;;26.85;11.20;;;;;;;9.92;94.74;99031.19;5061069;28;20052;-93
2021/11/12 01:16:30;;;;;;;21.23;10.52;;;;;;;9.87;94.15;99021.53;5063721;28;20041;-92
2021/11/12 01:18:57;;;;;;;21.63;9.63;;;;;;;9.94;93.81;99006.34;5062833;28;20045;-93
2021/11/12 01:21:23;;;;;;;24.00;10.98;;;;;;;10.05;94.16;99030.91;5068849;28;20071;-94
2021/11/12 01:23:51;;;;;;;24.30;10.85;;;;;;;9.94;93.94;99011.66;5059798;28;20048;-94
2021/11/12 01:26:21;;;;;;;23.60;10.50;;;;;;;9.87;94.38;99002.94;5054054;28;20124;-92
2021/11/12 01:28:47;;;;;;;;;;;;;;;10.05;93.71;99038.88;5056972;28;20047;-92
2021/11/12 01:31:13;;;;;;;21.60;9.30;;;;;;;10.11;93.31;99039.69;5065217;28;19920;-93
2021/11/12 01:33:41;;;;;;;23.58;10.52;;;;;;;9.88;93.32;99022.41;5066435;28;20037;-92
2021/11/12 01:39:13;;;;;;;22.42;9.90;;;;;;;9.73;95.11;99036.00;5098498;27;20447;-93
2021/11/12 01:41:45;;;;;;;26.58;10.57;;;;;;;9.62;95.95;99023.78;5096280;28;20048;-95
2021/11/12 01:44:12;;;;;;;29.52;12.52;;;;;;;9.59;95.64;99015.91;5096456;28;20044;-94
2021/11/12 01:46:47;;;;;;;26.98;11.90;;;;;;;9.68;95.96;99053.81;5095552;28;20046;-91
2021/11/12 02:01:35;;;;;;;26.20;12.57;;;;;;;9.30;97.43;99045.59;5161280;27;20371;-93
2021/11/12 02:04:02;;;;;;;21.98;11.57;;;;;;;9.16;98.62;99029.94;5129220;28;20042;-93
2021/11/12 02:06:31;;;;;;;30.80;14.07;;;;;;;9.10;99.00;99010.59;5126464;27;20055;-93
2021/11/12 02:09:00;;;;;;;29.45;13.40;;;;;;;9.11;99.00;99012.34;5132965;27;20302;-93
2021/11/12 02:11:27;;;;;;;28.10;13.05;;;;;;;9.33;98.40;99037.63;5126118;27;20455;-93
2021/11/12 02:13:54;;;;;;;26.52;13.65;;;;;;;9.15;97.97;99006.97;5130418;28;20047;-92
2021/11/12 02:16:24;;;;;;;26.52;13.55;;;;;;;9.32;98.36;99034.97;5130300;27;20055;-94
2021/11/12 02:18:52;;;;;;;32.88;14.65;;;;;;;9.14;98.44;99014.97;5129942;27;20044;-93
2021/11/12 02:21:27;;;;;;;29.85;14.02;;;;;;;9.18;98.76;99019.31;5137115;27;20074;-93
2021/11/12 02:26:57;;;;;;;28.42;13.05;;;;;;;9.11;99.75;99018.53;5097284;27;20822;-92
2021/11/12 02:29:27;;;;;;;28.67;12.60;;;;;;;9.04;99.86;98990.34;5097204;28;20040;-93
2021/11/12 02:31:54;;;;;;;27.20;12.82;;;;;;;9.22;99.62;98991.81;5096588;28;20051;-93
2021/11/12 02:34:21;;;;;;;27.38;11.88;;;;;;;9.23;98.33;98983.81;5097376;28;20067;-93
2021/11/12 02:36:47;;;;;;;27.88;12.50;;;;;;;9.45;98.29;98991.38;5096952;28;20047;-94
2021/11/12 02:39:15;;;;;;;26.90;12.73;;;;;;;9.49;97.55;98997.50;5097110;28;20108;-92
2021/11/12 02:41:43;;;;;;;26.80;12.17;;;;;;;9.42;97.44;98991.44;5097570;28;20044;-93
2021/11/12 02:44:12;;;;;;;28.92;12.63;;;;;;;9.47;97.88;99000.19;5096994;28;20363;-92
2021/11/12 02:46:38;;;;;;;;;;;;;;;9.58;97.51;99014.13;5096982;28;20124;-93
2021/11/12 02:49:05;;;;;;;32.13;14.63;;;;;;;9.53;97.06;98991.25;5096819;28;19921;-94
2021/11/12 02:51:33;;;;;;;31.77;14.50;;;;;;;9.46;96.46;98987.84;5097198;28;20048;-93
2021/11/12 02:54:01;;;;;;;28.98;13.93;;;;;;;9.35;96.96;98976.56;5097069;28;20040;-92
2021/11/12 02:56:29;;;;;;;29.13;13.73;;;;;;;9.38;97.04;98977.34;5097600;28;20502;-92
2021/11/12 02:58:59;;;;;;;31.98;14.13;;;;;;;9.31;97.09;98973.06;5097347;28;20048;-93
2021/11/12 03:01:28;;;;;;;29.50;14.15;;;;;;;9.34;97.81;98985.41;5095293;28;20054;-93
2021/11/12 03:03:54;;;;;;;25.85;12.35;;;;;;;9.43;98.05;99006.47;5096280;28;20044;-93
2021/11/12 03:06:21;;;;;;;30.83;13.82;;;;;;;9.37;97.07;98972.09;5096882;28;20054;-93
2021/11/12 03:08:48;;;;;;;26.67;12.23;;;;;;;9.38;96.93;98972.03;5096797;28;20047;-93
2021/11/12 03:11:14;;;;;;;31.40;13.80;;;;;;;9.51;96.91;99003.66;5093636;28;20036;-93
2021/11/12 03:13:40;;;;;;;38.00;13.85;;;;;;;9.49;97.03;99014.31;5096892;28;20064;-91
2021/11/12 03:16:07;;;;;;;29.15;12.43;;;;;;;9.29;97.87;98980.19;5095022;28;20401;-93
2021/11/12 03:18:35;;;;;;;31.73;13.15;;;;;;;9.32;98.07;98993.38;5096215;28;20072;-92
2021/11/12 03:21:02;;;;;;;33.78;14.43;;;;;;;9.39;97.47;99002.09;5096056;28;20089;-93
2021/11/12 04:02:52;;;;;;;34.75;15.45;;;;;;;8.32;100.00;99026.78;5085788;27;20376;-92
2021/11/12 05:55:32;;;;;;;41.28;16.23;;;;;;;8.26;100.00;99023.34;5078596;28;20380;-94
2021/11/12 05:58:00;;;;;;;36.53;15.10;;;;;;;8.16;100.00;99019.97;5078345;28;20041;-93
2021/11/12 06:00:30;;;;;;;32.35;14.75;;;;;;;8.19;100.00;99038.44;5077338;28;20047;-92
2021/11/12 06:02:56;;;;;;;39.60;16.60;;;;;;;8.05;100.00;99014.81;5079517;28;20383;-93
2021/11/12 06:05:22;;;;;;;33.85;15.65;;;;;;;8.14;100.00;99029.69;5079274;28;20043;-94
2021/11/12 06:07:48;;;;;;;37.08;15.48;;;;;;;8.02;100.00;99002.47;5078658;28;20040;-93
2021/11/12 06:10:15;;;;;;;36.65;15.35;;;;;;;8.28;100.00;99030.38;5077878;28;20116;-93
2021/11/12 06:12:42;;;;;;;31.13;14.45;;;;;;;8.25;100.00;99019.81;5078657;28;20509;-91
2021/11/12 06:15:09;;;;;;;34.40;14.70;;;;;;;8.23;100.00;99019.84;5076650;28;20045;-92
2021/11/12 06:17:35;;;;;;;37.63;14.32;;;;;;;8.08;100.00;98996.19;5076075;28;20491;-93
2021/11/12 06:20:01;;;;;;;34.28;13.98;;;;;;;8.08;100.00;98987.38;5076982;28;20047;-93
2021/11/12 06:22:29;;;;;;;35.47;14.30;;;;;;;8.05;100.00;98976.84;5076459;28;20044;-95
2021/11/12 06:24:59;;;;;;;38.78;13.90;;;;;;;8.45;100.00;99008.09;5078086;28;20037;-94
2021/11/12 06:27:25;;;;;;;37.60;16.17;;;;;;;8.52;100.00;99004.44;5076042;28;20048;-95
2021/11/12 06:29:53;;;;;;;37.38;15.10;;;;;;;8.56;100.00;98995.56;5078115;28;20037;-95
2021/11/12 06:32:24;;;;;;;37.40;15.27;;;;;;;8.71;100.00;99013.88;5076598;28;20045;-94
2021/11/12 06:34:51;;;;;;;38.53;14.68;;;;;;;8.75;100.00;99009.41;5073930;28;20040;-93
2021/11/12 06:37:18;;;;;;;39.30;15.73;;;;;;;8.76;100.00;99014.69;5074426;28;20040;-93
2021/11/12 06:39:49;;;;;;;43.35;16.08;;;;;;;8.81;100.00;99022.56;5075164;28;20136;-95
2021/11/12 06:42:19;;;;;;;45.40;19.73;;;;;;;8.82;100.00;99025.19;5074424;28;20507;-94
2021/11/12 06:50:54;;;;;;;35.10;16.60;;;;;;;8.89;100.00;99022.44;5165381;27;20385;-93
2021/11/12 06:53:22;;;;;;;35.60;15.52;;;;;;;8.98;100.00;99040.88;5158564;27;20066;-93
2021/11/12 06:55:56;;;;;;;47.03;22.08;;;;;;;9.02;100.00;99031.94;5160815;27;20045;-94
2021/11/12 06:58:26;;;;;;;51.33;24.40;;;;;;;9.21;100.00;99057.25;5159439;27;20088;-95
2021/11/12 07:00:53;;;;;;;48.13;21.35;;;;;;;9.27;99.29;99060.72;5158228;27;20092;-94
2021/11/12 07:03:19;;;;;;;50.47;21.20;;;;;;;9.22;98.31;99045.75;5158138;27;20034;-94
2021/11/12 07:05:45;;;;;;;45.85;19.38;;;;;;;9.18;97.13;99040.53;5155467;27;20062;-96
2021/11/12 07:08:14;;;;;;;40.33;17.52;;;;;;;9.10;97.59;99026.53;5156097;27;20476;-92
2021/11/12 07:10:40;;;;;;;38.45;18.20;;;;;;;9.29;97.68;99057.16;5157272;27;20046;-93
2021/11/12 07:13:06;;;;;;;39.55;16.83;;;;;;;9.32;97.84;99062.38;5158368;27;20126;-94
2021/11/12 07:15:32;;;;;;;38.38;17.00;;;;;;;9.28;98.14;99059.81;5156499;27;20543;-93
2021/11/12 07:17:58;;;;;;;35.88;16.48;;;;;;;9.23;97.73;99036.88;5157826;27;20039;-93
2021/11/12 07:20:24;;;;;;;36.80;16.08;;;;;;;9.46;97.52;99070.13;5158125;27;20031;-93
2021/11/12 07:22:50;;;;;;;36.25;16.65;;;;;;;9.48;97.09;99036.47;5157157;27;20034;-92
2021/11/12 07:25:17;;;;;;;37.95;17.02;;;;;;;9.53;96.89;99028.41;5159456;27;20066;-93
2021/11/12 07:27:43;;;;;;;37.35;16.48;;;;;;;9.46;96.88;99003.75;5158531;27;20100;-92
2021/11/12 07:30:15;;;;;;;30.55;13.93;;;;;;;9.51;96.48;99003.66;5157639;27;20031;-95
2021/11/12 07:32:43;;;;;;;36.25;15.70;;;;;;;9.62;95.64;99007.00;5158382;27;20050;-93
2021/11/12 07:35:11;;;;;;;39.88;15.35;;;;;;;9.69;96.71;99039.59;5156481;27;20116;-93
2021/11/12 07:37:37;;;;;;;36.05;15.25;;;;;;;9.68;96.18;99029.91;5156855;27;20035;-93
2021/11/12 07:46:59;;;;;;;30.73;14.95;;;;;;;9.88;94.91;99025.94;5138034;27;20391;-94
2021/11/12 07:49:26;;;;;;;32.75;14.98;;;;;;;10.02;94.40;99028.31;5137408;27;20047;-93
2021/11/12 07:51:53;;;;;;;35.22;15.52;;;;;;;10.34;93.50;99050.69;5137992;27;20058;-94
2021/11/12 07:54:19;;;;;;;35.60;14.65;;;;;;;10.56;92.38;99067.09;5138787;27;20104;-92
2021/11/12 07:56:50;;;;;;;29.33;14.07;;;;;;;10.61;91.97;99035.06;5140039;27;20047;-94
2021/11/12 07:59:16;;;;;;;35.35;15.63;;;;;;;10.82;90.71;99044.31;5140118;27;20043;-93
2021/11/12 08:01:43;;;;;;;40.17;17.00;;;;;;;10.98;89.99;99047.50;5138601;27;20040;-93
2021/11/12 08:04:12;;;;;;;47.33;19.15;;;;;;;11.04;89.44;99042.03;5138798;27;20040;-93
2021/11/12 08:06:38;;;;;;;45.35;18.20;;;;;;;11.25;89.78;99045.91;5137025;27;20085;-93
2021/11/12 08:09:08;;;;;;;43.88;18.67;;;;;;;11.40;88.62;99039.31;5136246;27;20050;-91
2021/11/12 08:29:43;;;;;;;41.33;18.00;;;;;;;11.67;87.81;99062.56;5113434;27;20901;-94
2021/11/12 08:44:05;;;;;;;39.05;17.35;;;;;;;11.87;85.71;99022.06;5069449;28;20382;-94
2021/11/12 08:49:38;;;;;;;39.17;18.70;;;;;;;11.95;85.69;99028.97;5099156;27;20370;-94
2021/11/12 08:52:06;;;;;;;36.72;18.30;;;;;;;11.98;84.73;99023.59;5098952;28;20051;-93
2021/11/12 08:54:36;;;;;;;39.40;18.27;;;;;;;12.09;83.88;99016.16;5098432;28;20044;-92
2021/11/12 09:00:10;;;;;;;33.75;16.13;;;;;;;12.43;82.08;99013.34;5109112;27;20368;-93
2021/11/12 09:02:36;;;;;;;36.55;16.17;;;;;;;12.44;82.33;98998.22;5078190;28;20913;-93
2021/11/12 09:05:03;;;;;;;31.98;14.60;;;;;;;12.73;83.60;99022.19;5077189;28;20072;-94
2021/11/12 09:07:30;;;;;;;32.90;14.68;;;;;;;12.51;85.00;98992.66;5075728;28;20051;-93
2021/11/12 09:09:56;;;;;;;32.78;15.63;;;;;;;12.39;83.79;98985.03;5092862;28;20520;-94
2021/11/12 09:12:24;;;;;;;32.97;14.82;;;;;;;12.24;84.82;98980.16;5081524;28;20037;-93
2021/11/12 09:14:52;;;;;;;33.70;16.05;;;;;;;12.08;85.46;98985.09;5073100;28;20044;-94
2021/11/12 09:17:21;;;;;;;29.17;13.75;;;;;;;12.39;85.05;98995.69;5074158;28;20041;-92
2021/11/12 09:19:50;;;;;;;32.72;14.27;;;;;;;12.50;83.39;98998.03;5073141;28;20482;-93
2021/11/12 09:22:20;;;;;;;28.40;13.50;;;;;;;12.67;83.00;98994.81;5071682;28;20111;-93
2021/11/12 09:24:48;;;;;;;33.35;14.40;;;;;;;13.01;82.17;99023.97;5076554;28;20049;-93
2021/11/12 09:27:14;;;;;;;30.38;13.75;;;;;;;13.14;81.21;99027.97;5081179;28;20041;-94
2021/11/12 09:29:41;;;;;;;28.73;14.43;;;;;;;13.28;80.90;99037.31;5075615;28;20098;-93
2021/11/12 09:32:08;;;;;;;27.65;13.35;;;;;;;13.31;79.79;99030.09;5074051;28;20044;-95
2021/11/12 09:34:37;;;;;;;26.52;13.35;;;;;;;13.54;79.87;99047.13;5074767;28;20359;-94
2021/11/12 09:37:05;;;;;;;29.70;14.80;;;;;;;13.72;79.63;99051.81;5075569;28;20072;-93
2021/11/12 09:39:33;;;;;;;28.52;14.30;;;;;;;13.69;79.20;99033.25;5075065;28;20114;-93
2021/11/12 09:42:06;;;;;;;29.65;15.48;;;;;;;13.63;78.60;99022.75;5074825;28;20040;-93
2021/11/12 09:44:33;;;;;;;35.42;16.27;;;;;;;13.75;79.14;99030.34;5073264;28;20056;-96
2021/11/12 09:47:00;;;;;;;28.67;14.18;;;;;;;13.71;79.06;99027.84;5074844;28;20047;-95
2021/11/12 09:49:27;;;;;;;34.15;15.40;;;;;;;13.80;78.96;99043.56;5081576;28;20036;-94
2021/11/12 09:51:55;;;;;;;36.42;15.43;;;;;;;13.67;79.01;99026.22;5078559;28;20033;-94
2021/11/12 09:54:24;;;;;;;34.25;16.02;;;;;;;13.72;79.37;99032.25;5075396;28;20045;-94
2021/11/12 09:56:50;;;;;;;;;;;;;;;13.85;78.91;99046.06;5074892;28;20045;-93
2021/11/12 09:59:16;;;;;;;31.63;16.05;;;;;;;13.79;79.37;99027.56;5074157;28;19978;-94
2021/11/12 10:01:42;;;;;;;28.10;15.07;;;;;;;13.82;78.94;99030.13;5075017;28;20037;-92
2021/11/12 10:04:09;;;;;;;30.23;14.52;;;;;;;13.84;78.99;99026.47;5072295;28;20045;-93
2021/11/12 10:06:37;;;;;;;32.35;15.07;;;;;;;13.96;79.05;99034.03;5074773;28;20045;-94
2021/11/12 10:09:17;;;;;;;33.08;14.85;;;;;;;13.98;77.88;99017.94;5074290;28;20041;-93
2021/11/12 10:11:49;;;;;;;28.95;14.35;;;;;;;14.18;77.65;99036.81;5061431;28;20041;-94
2021/11/12 10:14:25;;;;;;;31.17;15.63;;;;;;;14.24;77.98;99048.19;5055567;28;20196;-95
2021/11/12 10:16:57;;;;;;;27.45;13.77;;;;;;;13.91;78.95;99019.09;5057657;28;20045;-96
2021/11/12 10:19:24;;;;;;;30.13;13.40;;;;;;;13.68;79.46;99010.09;5057877;28;20128;-95
2021/11/12 10:21:52;;;;;;;25.77;12.75;;;;;;;13.82;79.90;99046.19;5057267;28;20053;-95
2021/11/12 10:24:22;;;;;;;26.53;13.40;;;;;;;14.11;78.31;99021.91;5057398;28;20051;-94
2021/11/12 10:26:52;;;;;;;27.10;13.60;;;;;;;14.35;77.43;99024.56;5057378;28;20045;-94
2021/11/12 10:29:22;;;;;;;28.05;13.57;;;;;;;14.90;76.12;99033.16;5057651;28;20049;-94
2021/11/12 10:31:54;;;;;;;25.85;12.38;;;;;;;15.27;74.41;99031.63;5057221;28;20068;-94
2021/11/12 10:34:22;;;;;;;22.92;11.63;;;;;;;15.65;70.73;99034.47;5056873;28;20049;-95
2021/11/12 10:36:58;;;;;;;25.98;11.73;;;;;;;15.55;70.24;99022.44;5057465;28;20056;-95
2021/11/12 10:39:32;;;;;;;22.45;11.60;;;;;;;14.79;73.29;99013.97;5057508;28;20048;-95
2021/11/12 10:42:00;;;;;;;24.45;12.45;;;;;;;14.75;74.50;99010.53;5056957;28;20069;-94
2021/11/12 10:44:26;;;;;;;27.30;13.80;;;;;;;14.81;75.21;98997.84;5057058;28;20045;-94
2021/11/12 10:46:52;;;;;;;28.85;13.40;;;;;;;15.00;73.68;99012.22;5056160;28;20041;-94
2021/11/12 10:49:27;;;;;;;28.35;14.65;;;;;;;14.41;77.39;98996.72;5056871;28;20553;-95
2021/11/12 10:51:55;;;;;;;30.52;15.82;;;;;;;14.71;75.94;99008.06;5057834;28;20065;-95
2021/11/12 10:57:39;;;;;;;28.92;14.80;;;;;;;14.54;77.75;98990.81;5115126;27;20373;-93
2021/11/12 11:00:12;;;;;;;28.17;15.30;;;;;;;14.41;77.96;98980.66;5104811;28;20048;-94
2021/11/12 11:02:41;;;;;;;30.40;16.38;;;;;;;14.76;76.80;99011.41;5113743;28;20039;-94
2021/11/12 11:05:10;;;;;;;31.75;15.55;;;;;;;14.52;76.57;98976.63;5075126;28;20079;-93
2021/11/12 11:07:39;;;;;;;32.17;15.95;;;;;;;14.78;77.17;98982.78;5078604;28;20157;-94
2021/11/12 11:10:17;;;;;;;35.47;16.88;;;;;;;14.87;75.81;98957.44;5094067;28;20036;-95
2021/11/12 11:12:45;;;;;;;31.35;16.63;;;;;;;15.03;75.57;98985.31;5094787;28;20055;-95
2021/11/12 11:15:32;;;;;;;37.83;18.15;;;;;;;14.99;75.25;98983.72;5094018;28;20051;-94
2021/11/12 11:24:31;;;;;;;33.70;17.25;;;;;;;14.58;79.23;98975.56;5093390;27;20366;-94
2021/11/12 11:26:58;;;;;;;35.15;17.30;;;;;;;14.80;77.14;98972.88;5082757;28;20048;-93
2021/11/12 11:29:24;;;;;;;32.35;15.63;;;;;;;15.04;75.92;98970.13;5093464;28;20044;-95
2021/11/12 11:31:51;;;;;;;37.95;18.08;;;;;;;14.74;77.26;98965.94;5092677;28;20047;-94
2021/11/12 11:34:18;;;;;;;34.55;17.45;;;;;;;14.53;78.83;98951.63;5093769;28;20090;-95
2021/11/12 11:36:45;;;;;;;35.20;18.02;;;;;;;14.77;77.17;98975.69;5093157;28;20048;-95
2021/11/12 11:39:13;;;;;;;32.05;17.38;;;;;;;14.74;76.95;98965.09;5095481;28;20044;-96
2021/11/12 11:41:43;;;;;;;33.25;17.58;;;;;;;14.89;76.05;98960.91;5093591;28;20040;-94
2021/11/12 11:44:09;;;;;;;40.30;19.27;;;;;;;15.07;76.57;98964.63;5092347;28;20044;-95
2021/11/12 11:46:41;;;;;;;37.25;20.02;;;;;;;15.23;76.24;98987.16;5092875;28;20044;-95
2021/11/12 11:49:09;;;;;;;42.40;20.63;;;;;;;15.18;76.55;98957.03;5094119;28;20397;-94
2021/11/12 11:51:38;;;;;;;37.30;18.73;;;;;;;15.27;75.33;98967.34;5093631;28;20072;-95
2021/11/12 11:54:06;;;;;;;39.53;20.02;;;;;;;15.20;75.47;98949.75;5094340;28;20044;-95
2021/11/12 11:56:35;;;;;;;34.97;18.73;;;;;;;15.12;75.26;98951.94;5095321;28;20048;-94
2021/11/12 11:59:10;;;;;;;33.42;18.77;;;;;;;15.28;75.24;98952.13;5094308;28;20048;-95
2021/11/12 12:01:38;;;;;;;33.85;18.63;;;;;;;15.03;77.16;98937.13;5096280;28;20040;-95
2021/11/12 12:04:29;;;;;;;32.00;17.85;;;;;;;14.86;78.14;98972.63;5094720;28;20040;-94
2021/11/12 12:07:16;;;;;;;36.03;17.10;;;;;;;14.81;79.60;98957.69;5092504;28;20406;-95
2021/11/12 12:09:46;;;;;;;35.67;19.30;;;;;;;14.87;78.45;98942.22;5093072;28;20047;-96
2021/11/12 12:12:13;;;;;;;36.35;18.90;;;;;;;15.06;78.62;98973.59;5092059;28;20040;-94
2021/11/12 12:14:40;;;;;;;46.78;23.60;;;;;;;15.04;77.65;98932.63;5091924;28;20045;-94
2021/11/12 12:33:19;;;;;;;35.70;18.45;;;;;;;15.58;76.47;98944.53;5130720;27;1418662;-94
2021/11/12 13:22:17;;;;;;;33.50;16.02;;;;;;;14.91;78.47;98905.50;5136628;27;20173;-95
2021/11/12 13:24:53;;;;;;;35.72;16.15;;;;;;;15.03;78.04;98912.13;5113340;28;20047;-94
2021/11/12 13:27:19;;;;;;;32.80;16.55;;;;;;;15.16;78.52;98932.09;5113229;28;20501;-94
2021/11/12 13:29:45;;;;;;;31.60;16.58;;;;;;;15.05;78.66;98916.50;5114777;28;20044;-95
2021/11/12 13:32:11;;;;;;;30.10;15.85;;;;;;;15.04;78.22;98901.34;5113490;28;20471;-95
2021/11/12 13:34:42;;;;;;;32.97;16.70;;;;;;;15.10;78.66;98921.66;5115088;28;20069;-93
2021/11/12 13:37:21;;;;;;;32.90;16.60;;;;;;;15.10;78.53;98917.16;5104887;28;20041;-95
2021/11/12 13:40:06;;;;;;;29.45;15.57;;;;;;;15.05;78.72;98910.25;5112940;28;20455;-94
2021/11/12 13:42:38;;;;;;;31.13;15.57;;;;;;;15.12;78.94;98935.84;5107406;28;20099;-94
2021/11/12 13:45:13;;;;;;;33.53;16.40;;;;;;;15.17;78.86;98944.56;5103422;28;20050;-93
2021/11/12 13:47:38;;;;;;;30.17;15.65;;;;;;;15.12;78.58;98934.03;5114449;28;20177;-94
2021/11/12 13:50:06;;;;;;;27.60;15.50;;;;;;;15.17;78.54;98933.84;5108681;28;20055;-96
2021/11/12 13:52:34;;;;;;;29.25;14.40;;;;;;;15.16;79.00;98929.44;5110320;28;20043;-95
2021/11/12 13:55:04;;;;;;;29.85;14.52;;;;;;;15.29;78.80;98940.44;5106783;28;20044;-94
2021/11/12 13:57:30;;;;;;;30.27;14.70;;;;;;;15.36;78.42;98929.41;5098377;28;20448;-93
2021/11/12 13:59:59;;;;;;;32.17;14.95;;;;;;;15.43;77.30;98921.97;5108578;28;20072;-93
2021/11/12 14:02:26;;;;;;;30.70;15.98;;;;;;;15.52;77.09;98926.91;5104922;28;20036;-95
2021/11/12 14:04:52;;;;;;;33.40;16.25;;;;;;;15.58;76.03;98933.81;5098693;28;20052;-94
2021/11/12 14:07:20;;;;;;;28.70;14.70;;;;;;;15.60;76.44;98942.66;5092820;28;20054;-94
2021/11/12 14:10:00;;;;;;;29.33;13.67;;;;;;;15.52;76.03;98936.78;5097807;28;20111;-95
2021/11/12 14:12:26;;;;;;;25.85;13.43;;;;;;;15.45;75.35;98927.28;5104102;28;20268;-94
2021/11/12 14:15:04;;;;;;;31.10;13.02;;;;;;;15.44;74.81;98930.88;5107809;28;20066;-96
2021/11/12 14:17:31;;;;;;;26.65;14.73;;;;;;;15.44;73.94;98941.59;5102077;28;20581;-94
2021/11/12 14:20:19;;;;;;;29.77;13.73;;;;;;;15.32;75.01;98935.84;5111681;28;20047;-94
2021/11/12 14:26:12;;;;;;;28.55;14.23;;;;;;;15.22;77.16;98947.88;5096280;27;20378;-93
2021/11/12 14:47:19;;;;;;;32.95;15.32;;;;;;;15.12;76.34;98927.81;5126170;27;20383;-94
2021/11/12 14:53:05;;;;;;;33.15;16.15;;;;;;;14.85;78.18;98897.72;5121787;27;20372;-95
2021/11/12 14:55:32;;;;;;;30.05;16.13;;;;;;;14.98;79.50;98940.00;5121054;28;20086;-95
2021/11/12 14:57:58;;;;;;;30.00;16.15;;;;;;;14.78;80.06;98906.00;5122375;28;20059;-95
2021/11/12 15:00:26;;;;;;;31.75;15.82;;;;;;;14.90;79.34;98930.53;5123617;28;20442;-94
2021/11/12 15:02:52;;;;;;;27.53;14.43;;;;;;;14.79;78.77;98923.81;5122308;28;20051;-95
2021/11/12 15:05:19;;;;;;;29.77;14.25;;;;;;;14.79;79.42;98922.97;5120650;28;20036;-95
2021/11/12 15:10:53;;;;;;;32.55;14.88;;;;;;;14.68;79.80;98925.19;5141572;27;20379;-95
2021/11/12 15:13:19;;;;;;;;;;;;;;;14.70;80.33;98931.34;5142281;28;20122;-94
2021/11/12 15:15:47;;;;;;;27.88;14.27;;;;;;;14.46;80.63;98895.72;5143052;27;19924;-94
2021/11/12 15:18:14;;;;;;;30.83;14.90;;;;;;;14.41;79.94;98901.28;5152095;27;20046;-94
2021/11/12 15:20:41;;;;;;;27.08;13.70;;;;;;;14.44;80.60;98910.97;5141831;27;20039;-94
2021/11/12 15:37:55;;;;;;;25.23;13.38;;;;;;;14.16;87.60;98928.13;5156319;27;20404;-93
2021/11/12 15:40:25;;;;;;;31.48;13.93;;;;;;;13.98;87.88;98922.56;5118848;28;20044;-96
2021/11/12 15:51:38;;;;;;;25.52;12.70;;;;;;;13.48;91.76;98911.97;5117364;27;20386;-94
2021/11/12 16:33:18;;;;;;;38.20;18.38;;;;;;;13.23;92.80;98977.81;5165359;27;20363;-96
2021/11/12 16:35:45;;;;;;;37.85;17.35;;;;;;;13.00;92.54;98949.25;5160411;27;20048;-95
2021/11/12 16:38:18;;;;;;;43.38;19.17;;;;;;;13.00;92.89;98949.25;5161636;27;20045;-95
2021/11/12 16:40:49;;;;;;;42.50;20.00;;;;;;;13.02;92.93;98955.44;5166004;27;20039;-96
2021/11/12 16:49:33;;;;;;;42.45;18.15;;;;;;;13.23;93.07;98983.16;5133795;27;20356;-94
2021/11/12 17:13:08;;;;;;;39.30;19.40;;;;;;;13.14;94.73;98995.94;5105254;28;20101;-95
2021/11/12 17:47:48;;;;;;;39.72;18.65;;;;;;;12.74;95.22;99001.72;5144778;27;20375;-95
2021/11/12 18:14:28;;;;;;;40.42;20.17;;;;;;;12.40;94.90;98996.56;5117137;27;20388;-95
2021/11/12 21:48:06;;;;;;;76.80;35.95;;;;;;;9.95;100.00;99109.03;5151226;27;20425;-94
2021/11/12 21:50:33;;;;;;;80.38;36.17;;;;;;;9.98;100.00;99108.13;5134963;27;20092;-94
2021/11/12 21:52:59;;;;;;;80.57;36.15;;;;;;;9.90;100.00;99100.28;5133448;27;20078;-94
2021/11/12 21:55:25;;;;;;;80.97;38.55;;;;;;;9.81;100.00;99087.19;5133384;27;20063;-94
2021/11/12 21:57:51;;;;;;;79.50;37.28;;;;;;;9.89;100.00;99109.19;5133982;28;20067;-93
2021/11/12 22:00:17;;;;;;;73.43;34.20;;;;;;;9.79;100.00;99099.63;5134103;28;20051;-93
2021/11/12 22:02:44;;;;;;;73.90;36.53;;;;;;;9.75;100.00;99097.91;5133048;28;20047;-94
2021/11/12 22:05:11;;;;;;;78.90;35.53;;;;;;;9.75;100.00;99088.16;5133734;27;20047;-93
2021/11/12 22:07:37;;;;;;;66.57;34.53;;;;;;;9.77;100.00;99090.81;5133377;27;20043;-93
2021/11/12 22:10:05;;;;;;;78.35;34.05;;;;;;;9.81;100.00;99098.69;5133735;28;20044;-94
2021/11/12 22:12:31;;;;;;;72.47;34.88;;;;;;;9.73;100.00;99091.75;5134091;28;20051;-95
2021/11/12 22:14:57;;;;;;;82.60;37.50;;;;;;;9.82;100.00;99097.78;5133409;27;20488;-94
2021/11/12 22:17:24;;;;;;;84.28;37.40;;;;;;;9.80;100.00;99104.91;5133521;27;20039;-94
2021/11/12 22:19:50;;;;;;;72.72;35.03;;;;;;;9.85;100.00;99120.75;5134402;27;20052;-93
2021/11/12 22:22:17;;;;;;;78.95;35.58;;;;;;;9.80;100.00;99126.16;5134202;28;20043;-95
2021/11/12 22:24:43;;;;;;;72.60;35.70;;;;;;;9.71;100.00;99115.69;5134243;28;20493;-94
2021/11/12 22:27:09;;;;;;;79.90;37.47;;;;;;;9.55;100.00;99096.50;5136922;27;20044;-96
2021/11/12 22:29:36;;;;;;;77.50;37.72;;;;;;;9.60;100.00;99104.38;5135674;28;20085;-95
2021/11/12 22:32:02;;;;;;;83.43;39.88;;;;;;;9.79;100.00;99129.69;5133276;27;20043;-94
2021/11/12 22:34:30;;;;;;;94.68;40.78;;;;;;;9.71;100.00;99136.06;5133243;28;20096;-93
2021/11/12 22:36:55;;;;;;;85.80;43.05;;;;;;;9.61;100.00;99114.97;5133243;27;20043;-94
2021/11/12 22:39:23;;;;;;;97.30;43.35;;;;;;;9.74;100.00;99136.03;5132677;27;20183;-95
2021/11/12 22:41:53;;;;;;;89.80;42.35;;;;;;;9.76;100.00;99145.72;5137301;27;20071;-94
2021/11/12 22:44:20;;;;;;;84.45;39.55;;;;;;;9.53;100.00;99110.72;5138295;27;20222;-94
2021/11/12 22:46:48;;;;;;;83.25;41.13;;;;;;;9.58;100.00;99125.63;5135801;28;20056;-94
2021/11/12 22:49:14;;;;;;;94.60;42.45;;;;;;;9.52;100.00;99112.50;5134811;28;20042;-94
2021/11/12 22:51:41;;;;;;;86.95;41.50;;;;;;;9.51;100.00;99113.38;5135110;28;20497;-94
2021/11/12 22:54:08;;;;;;;93.20;42.97;;;;;;;9.50;100.00;99119.59;5136464;27;20497;-95
2021/11/12 22:56:35;;;;;;;100.60;46.97;;;;;;;9.60;100.00;99136.25;5134062;27;20043;-92
2021/11/12 22:59:02;;;;;;;101.18;44.83;;;;;;;9.48;100.00;99128.47;5122304;27;20042;-93
2021/11/12 23:01:31;;;;;;;85.68;42.83;;;;;;;9.47;100.00;99130.25;5119578;28;20043;-93
2021/11/12 23:04:00;;;;;;;84.97;41.97;;;;;;;9.31;100.00;99105.75;5120474;28;20040;-93
2021/11/12 23:06:26;;;;;;;77.85;38.30;;;;;;;9.29;100.00;99117.31;5118723;28;20061;-94
2021/11/12 23:08:54;;;;;;;80.90;38.25;;;;;;;9.22;100.00;99105.91;5119426;28;20043;-92